Tabiona
, Tabiona
Last Weather Update:02/23/2012 7:00:00 PM
Date
ETo
ETc
Rain
Irrigation
Req
Temp
Max
Temp
Min
Temp
Avg
Avg RH
Avg Wind
Avg Solar
inches
inches
incehs
inches
F
F
F
%
%
watts/m2
01/01/2012 0.07" 0.00" 0.00" 0.00" 43.9° 6.0° 23.2° 44.3% 5.4 MPH 162.9w/m2
01/02/2012 0.07" 0.00" 0.00" 0.00" 46.6° 12.1° 26.7° 58.4% 3.3 MPH 168.9w/m2
01/03/2012 0.09" 0.00" 0.00" 0.00" 55.9° 15.9° 33.0° 46.0% 5.0 MPH 168.6w/m2
01/04/2012 0.07" 0.00" 0.00" 0.00" 49.9° 16.1° 29.5° 48.3% 4.4 MPH 160.0w/m2
01/05/2012 0.08" 0.00" 0.00" 0.00" 49.3° 15.0° 28.8° 57.5% 3.8 MPH 174.9w/m2
01/06/2012 0.10" 0.00" 0.00" 0.00" 50.6° 17.1° 33.4° 42.5% 6.5 MPH 183.4w/m2
01/07/2012 0.06" 0.00" 0.00" 0.00" 38.1° 22.4° 30.5° 57.2% 10.4 MPH 145.1w/m2
01/08/2012 0.06" 0.00" 0.00" 0.00" 39.3° 12.4° 25.0° 55.7% 6.0 MPH 170.0w/m2
01/09/2012 0.05" 0.00" 0.00" 0.00" 39.1° 12.3° 22.4° 69.1% 4.7 MPH 148.3w/m2
01/10/2012 0.06" 0.00" 0.00" 0.00" 47.7° 6.5° 26.9° 60.2% 5.6 MPH 155.3w/m2
01/11/2012 0.08" 0.00" 0.00" 0.00" 35.1° 10.1° 25.9° 37.1% 14.7 MPH 171.5w/m2
01/12/2012 0.08" 0.00" 0.00" 0.00" 40.8° F 21.4° 29.8% 7.2 MPH 174.2w/m2
01/13/2012 0.11" 0.00" 0.00" 0.00" 46.8° 20.2° 33.0° 18.3% 12.1 MPH 162.1w/m2
01/14/2012 0.08" 0.00" 0.00" 0.00" 45.8° 12.7° 26.5° 42.2% 3.9 MPH 178.0w/m2
01/15/2012 0.08" 0.00" 0.00" 0.00" 52.3° 7.9° 24.9° 41.9% 2.5 MPH 178.3w/m2
01/16/2012 0.05" 0.00" 0.00" 0.00" 35.5° 5.3° 21.3° 49.5% 10.8 MPH 153.3w/m2
01/17/2012 0.06" 0.00" 0.00" 0.00" 31.6° F 13.9° 39.9% 5.0 MPH 179.0w/m2
01/18/2012 0.08" 0.00" 0.00" 0.00" 42.6° 17.8° 30.7° 46.1% 10.7 MPH 172.7w/m2
01/19/2012 0.09" 0.00" 0.00" 0.00" 52.4° 31.8° 40.0° 59.1% 11.5 MPH 156.2w/m2
01/20/2012 0.06" 0.00" 0.00" 0.00" 45.6° 29.7° 37.0° 62.3% 8.1 MPH 147.7w/m2
01/21/2012 0.01" 0.00" 0.00" 0.00" 36.0° 24.6° 30.6° 92.6% 6.8 MPH 30.3w/m2
01/22/2012 0.07" 0.00" 0.00" 0.00" 32.9° 14.8° 23.9° 57.1% 17.0 MPH 186.0w/m2
01/23/2012 0.02" 0.00" 0.00" 0.00" 32.2° 9.1° 21.2° 76.7% 2.6 MPH 72.8w/m2
01/24/2012 0.07" 0.00" 0.00" 0.00" 36.5° 8.5° 25.0° 59.9% 7.5 MPH 195.1w/m2
01/25/2012 0.07" 0.00" 0.00" 0.00" 45.9° 4.1° 25.3° 63.9% 8.5 MPH 197.6w/m2
01/26/2012 0.05" 0.00" 0.01" -0.01" 48.1° 17.4° 32.2° 68.6% 7.7 MPH 136.3w/m2
01/27/2012 0.08" 0.00" 0.00" 0.00" 33.0° 14.2° 26.1° 47.3% 15.2 MPH 204.3w/m2
01/28/2012 0.09" 0.00" 0.00" 0.00" 42.9° 2.8° 21.8° 35.5% 8.1 MPH 197.3w/m2
01/29/2012 0.08" 0.00" 0.00" 0.00" 46.8° 15.9° 28.3° 48.5% 4.1 MPH 200.1w/m2
01/30/2012 0.08" 0.00" 0.00" 0.00" 46.1° 13.9° 29.8° 55.9% 6.0 MPH 185.9w/m2
01/31/2012 0.09" 0.00" 0.00" 0.00" 45.1° 15.2° 28.1° 49.3% 7.2 MPH 205.2w/m2
Totals: 2.20" 0.00" 0.01" -0.01" 55.9° F 27.3° 52.3% 7.5 MPH 165.2w/m2